Time;durP1;ratioP1;P1;durP2;ratioP2;P2;SDS_P1;SDS_P2;PMS_P1;PMS_P2;Temp;Humidity;BMP_temperature;BMP_pressure;BME280_temperature;BME280_humidity;BME280_pressure;Samples;Min_cycle;Max_cycle;Signal;HPM_P1;HPM_P2
2021/01/07 00:06:52;;;;;;;5.67;5.17;;;;;;;;;;14887997;29;20464;-76
2021/01/07 00:14:22;;;;;;;7.47;5.47;;;;;;;;;;14887504;29;20183;-76
2021/01/07 00:21:50;;;;;;;4.87;4.37;;;;;;;;;;14904039;29;20294;-77
2021/01/07 00:29:18;;;;;;;5.50;4.50;;;;;;;;;;14903249;29;20235;-77
2021/01/07 00:36:45;;;;;;;3.97;3.47;;;;;;;;;;14902002;29;20772;-76
2021/01/07 00:44:15;;;;;;;3.10;2.80;;;;;;;;;;14887682;29;20231;-78
2021/01/07 00:51:42;;;;;;;3.10;2.80;;;;;;;;;;14902609;29;20283;-77
2021/01/07 00:59:10;;;;;;;2.90;2.60;;;6.30;75.30;;;;;;14899577;29;20236;-77
2021/01/07 01:06:39;;;;;;;2.77;2.57;;;7.80;81.80;;;;;;14882958;29;20211;-77
2021/01/07 01:14:06;;;;;;;3.33;2.60;;;;;;;;;;14901242;29;20231;-76
2021/01/07 01:21:34;;;;;;;3.23;2.53;;;;;;;;;;14883975;29;20246;-78
2021/01/07 01:29:00;;;;;;;4.30;3.03;;;;;;;;;;14882760;29;20215;-77
2021/01/07 01:36:29;;;;;;;3.67;3.33;;;;;;;;;;14897646;29;20207;-76
2021/01/07 01:43:57;;;;;;;3.73;3.43;;;;;;;;;;14899662;29;20601;-77
2021/01/07 01:51:24;;;;;;;4.30;3.90;;;;;;;;;;14898830;29;20685;-76
2021/01/07 01:58:52;;;;;;;4.83;4.13;;;;;;;;;;14896328;29;20597;-76
2021/01/07 02:06:23;;;;;;;5.10;4.60;;;8.00;75.30;;;;;;14898145;29;20283;-78
2021/01/07 02:13:50;;;;;;;5.07;4.57;;;9.10;81.20;;;;;;14897503;29;20526;-77
2021/01/07 02:21:18;;;;;;;5.30;4.80;;;;;;;;;;14896610;29;20223;-76
2021/01/07 02:28:45;;;;;;;5.27;4.77;;;;;;;;;;14879426;29;20921;-77
2021/01/07 02:36:13;;;;;;;5.83;5.33;;;;;;;;;;14896223;29;20226;-76
2021/01/07 02:43:41;;;;;;;5.13;4.67;;;;;;;;;;14896510;29;20541;-75
2021/01/07 02:51:09;;;;;;;6.47;5.50;;;;;;;;;;14878486;29;20250;-77
2021/01/07 02:58:36;;;;;;;6.03;5.47;;;7.10;78.40;;;;;;14894204;29;20266;-77
2021/01/07 03:06:03;;;;;;;6.83;5.93;;;;;;;;;;14862429;29;20239;-77
2021/01/07 03:13:30;;;;;;;6.53;5.90;;;;;;;;;;14893978;29;20204;-76
2021/01/07 03:20:57;;;;;;;6.33;5.73;;;;;;;;;;14898600;29;20223;-77
2021/01/07 03:28:25;;;;;;;6.47;5.87;;;;;;;;;;14906795;29;20393;-77
2021/01/07 03:35:52;;;;;;;6.20;5.60;;;;;;;;;;14905778;29;20199;-79
2021/01/07 03:43:19;;;;;;;6.73;6.03;;;;;;;;;;14895398;29;20218;-79
2021/01/07 03:50:46;;;;;;;6.40;5.73;;;;;;;;;;14893211;29;20239;-77
2021/01/07 03:58:13;;;;;;;6.10;5.57;;;;;;;;;;14905609;29;20847;-78
2021/01/07 04:05:40;;;;;;;7.07;6.37;;;;;;;;;;14904531;29;20275;-79
2021/01/07 04:13:08;;;;;;;7.83;7.03;;;5.90;71.50;;;;;;14903440;29;20203;-77
2021/01/07 04:20:36;;;;;;;6.40;5.80;;;;;;;;;;14904014;29;20275;-77
2021/01/07 04:28:04;;;;;;;6.90;6.17;;;;;;;;;;14902517;29;20725;-78
2021/01/07 04:35:31;;;;;;;8.43;6.03;;;;;;;;;;14885048;29;20290;-78
2021/01/07 04:42:58;;;;;;;6.90;6.20;;;;;;;;;;14900810;29;20203;-78
2021/01/07 04:50:26;;;;;;;6.23;5.63;;;;;;;;;;14901121;29;20234;-77
2021/01/07 04:57:56;;;;;;;7.60;6.90;;;;;;;;;;14901918;29;20240;-78
2021/01/07 05:05:23;;;;;;;8.17;7.10;;;5.80;76.50;;;;;;14883409;29;20374;-77
2021/01/07 05:12:57;;;;;;;6.80;6.17;;;6.00;71.40;;;;;;14899185;29;20543;-77
2021/01/07 05:20:24;;;;;;;6.87;6.17;;;;;;;;;;14899507;29;20223;-77
2021/01/07 05:27:51;;;;;;;6.60;5.27;;;;;;;;;;14900685;29;20630;-78
2021/01/07 05:35:20;;;;;;;5.87;5.37;;;;;;;;;;14896502;29;20196;-78
2021/01/07 05:42:48;;;;;;;7.03;6.33;;;;;;;;;;14898177;29;20190;-78
2021/01/07 05:50:16;;;;;;;7.33;6.67;;;;;;;;;;14898692;29;20235;-77
2021/01/07 05:57:44;;;;;;;7.33;6.63;;;;;;;;;;14897611;29;20602;-78
2021/01/07 06:05:14;;;;;;;7.60;6.90;;;;;;;;;;14895319;29;20283;-74
2021/01/07 06:12:41;;;;;;;7.37;6.67;;;7.50;74.30;;;;;;14897239;29;20191;-72
2021/01/07 06:20:14;;;;;;;7.13;6.40;;;6.30;73.70;;;;;;14896615;29;20227;-73
2021/01/07 06:27:42;;;;;;;11.57;10.47;;;5.70;69.30;;;;;;14879269;29;20270;-72
2021/01/07 06:35:11;;;;;;;8.43;6.67;;;;;;;;;;14848955;29;20210;-73
2021/01/07 06:42:40;;;;;;;7.20;6.50;;;;;;;;;;14895587;29;20226;-72
2021/01/07 06:50:08;;;;;;;7.80;7.00;;;;;;;;;;14877108;29;20291;-73
2021/01/07 06:57:44;;;;;;;8.63;7.30;;;6.50;69.40;;;;;;14892596;29;20310;-73
2021/01/07 07:05:19;;;;;;;7.50;6.80;;;6.10;69.30;;;;;;14862136;29;20605;-73
2021/01/07 07:12:50;;;;;;;7.73;7.00;;;6.70;69.70;;;;;;14890631;29;20210;-73
2021/01/07 07:20:20;;;;;;;8.20;7.40;;;;;;;;;;14894200;29;20298;-78
2021/01/07 07:27:53;;;;;;;8.13;7.33;;;;;;;;;;14891755;29;20215;-78
2021/01/07 07:35:21;;;;;;;11.37;8.20;;;;;;;;;;14874513;29;20187;-78
2021/01/07 07:42:49;;;;;;;13.97;8.47;;;;;;;;;;14891810;29;20208;-79
2021/01/07 07:50:23;;;;;;;8.57;7.77;;;;;;;;;;14872109;29;20720;-80
2021/01/07 07:57:50;;;;;;;8.40;5.73;;;;;;;;;;14874557;29;20655;-82
2021/01/07 08:05:27;;;;;;;7.10;5.93;;;;;;;;;;14875050;29;20250;-82
2021/01/07 08:12:55;;;;;;;6.90;5.47;;;;;;;;;;14901431;29;20255;-81
2021/01/07 08:20:24;;;;;;;5.70;4.93;;;;;;;;;;14901488;29;20242;-81
2021/01/07 08:27:54;;;;;;;5.47;4.97;;;;;;;;;;14900850;29;20749;-80
2021/01/07 08:35:22;;;;;;;5.57;5.07;;;;;;;;;;14901693;29;20290;-82
2021/01/07 08:42:49;;;;;;;5.07;4.57;;;;;;;;;;14885214;29;20310;-79
2021/01/07 08:50:19;;;;;;;7.93;4.70;;;;;;;;;;14899961;29;20330;-81
2021/01/07 08:57:47;;;;;;;5.17;4.10;;;;;;;;;;14885094;29;20603;-80
2021/01/07 09:05:14;;;;;;;6.57;4.20;;;;;;;;;;14883846;29;20231;-80
2021/01/07 09:12:46;;;;;;;8.30;4.83;;;;;;;;;;14898646;29;20281;-80
2021/01/07 09:20:14;;;;;;;4.47;4.07;;;;;;;;;;14897969;29;20914;-80
2021/01/07 09:27:44;;;;;;;4.10;3.70;;;;;;;;;;14883280;29;20295;-80
2021/01/07 09:35:15;;;;;;;4.63;3.60;;;;;;;;;;14903866;29;20187;-79
2021/01/07 09:42:58;;;;;;;4.07;3.53;;;;;;;;;;14895764;29;20195;-81
2021/01/07 09:50:26;;;;;;;5.20;3.93;;;;;;;;;;14879945;29;20778;-80
2021/01/07 09:57:57;;;;;;;4.50;3.37;;;;;;;;;;14896554;29;20318;-80
2021/01/07 10:05:24;;;;;;;7.03;3.63;;;;;;;;;;14896717;29;20235;-79
2021/01/07 10:12:52;;;;;;;3.47;3.00;;;;;;;;;;14895885;29;20203;-80
2021/01/07 10:20:19;;;;;;;8.50;3.77;;;;;;;;;;14862641;29;20695;-81
2021/01/07 10:27:46;;;;;;;3.30;3.00;;;;;;;;;;14879071;29;20242;-81
2021/01/07 10:35:14;;;;;;;3.23;2.93;;;;;;;;;;14894655;29;20535;-81
2021/01/07 10:42:41;;;;;;;5.13;3.10;;;;;;;;;;14878071;29;20216;-81
2021/01/07 10:50:15;;;;;;;4.63;3.27;;;6.00;65.30;;;;;;14878722;29;20239;-79
2021/01/07 10:58:15;;;;;;;5.13;3.27;;;8.70;66.40;;;;;;14892762;29;20239;-80
2021/01/07 11:05:48;;;;;;;3.73;3.43;;;8.60;66.50;;;;;;14828559;29;20238;-81
2021/01/07 11:13:16;;;;;;;3.60;3.30;;;;;;;;;;14890275;29;20631;-80
2021/01/07 11:20:50;;;;;;;4.27;3.17;;;;;;;;;;14890337;29;20211;-77
2021/01/07 11:28:17;;;;;;;3.63;3.33;;;;;;;;;;14892666;29;20211;-77
2021/01/07 11:35:46;;;;;;;3.87;3.57;;;;;;;;;;14892105;29;20200;-77
2021/01/07 11:43:52;;;;;;;4.70;3.57;;;9.30;66.20;;;;;;14877143;29;20221;-77
2021/01/07 11:51:20;;;;;;;5.37;3.97;;;;;;;;;;14855367;29;20507;-79
2021/01/07 11:58:48;;;;;;;4.23;3.83;;;;;;;;;;14886093;29;20243;-77
2021/01/07 12:06:17;;;;;;;4.30;3.50;;;;;;;;;;14902123;29;20361;-79
2021/01/07 12:13:48;;;;;;;4.53;3.23;;;;;;;;;;14885027;29;20211;-79
2021/01/07 12:21:15;;;;;;;4.10;3.63;;;;;;;;;;14899546;29;20646;-78
2021/01/07 12:28:44;;;;;;;4.50;3.90;;;;;;;;;;14885081;29;20243;-79
2021/01/07 12:36:21;;;;;;;5.20;3.20;;;;;;;;;;14900422;29;20580;-76
2021/01/07 12:43:53;;;;;;;9.77;3.80;;;9.40;64.00;;;;;;14899438;29;20196;-73
2021/01/07 12:51:22;;;;;;;3.67;3.30;;;;;;;;;;14882711;29;20937;-72
2021/01/07 12:58:52;;;;;;;20.03;4.67;;;8.70;63.00;;;;;;14867659;29;20242;-74
2021/01/07 13:06:32;;;;;;;4.50;2.73;;;9.00;65.50;;;;;;14899147;29;20218;-74
2021/01/07 13:14:01;;;;;;;5.30;3.93;;;;;;;;;;14879514;29;20221;-76
2021/01/07 13:21:30;;;;;;;3.63;2.90;;;;;;;;;;14897018;29;20640;-74
2021/01/07 13:29:00;;;;;;;4.43;2.97;;;;;;;;;;14881826;29;20263;-78
2021/01/07 13:36:30;;;;;;;11.50;9.97;;;7.10;61.50;;;;;;14865702;29;20213;-78
2021/01/07 13:43:57;;;;;;;5.27;3.23;;;;;;;;;;14880701;29;20222;-79
2021/01/07 13:51:25;;;;;;;5.37;2.60;;;;;;;;;;14879609;29;20251;-76
2021/01/07 13:58:54;;;;;;;4.03;2.93;;;;;;;;;;14894705;29;20238;-75
2021/01/07 14:06:24;;;;;;;3.43;2.57;;;7.50;66.30;;;;;;14893429;29;20227;-76
2021/01/07 14:13:50;;;;;;;4.33;2.70;;;;;;;;;;14877771;29;20211;-75
2021/01/07 14:21:17;;;;;;;6.43;3.10;;;;;;;;;;14895751;29;20831;-75
2021/01/07 14:28:51;;;;;;;4.30;2.50;;;;;;;;;;14894110;29;20630;-78
2021/01/07 14:36:20;;;;;;;3.17;2.70;;;;;;;;;;14894260;29;20195;-76
2021/01/07 14:43:50;;;;;;;5.47;2.83;;;8.30;67.60;;;;;;14893606;29;20223;-76
2021/01/07 14:51:17;;;;;;;8.27;7.00;;;;;;;;;;14893146;29;20233;-78
2021/01/07 14:59:02;;;;;;;5.23;4.00;;;;;;;;;;14892982;29;20299;-76
2021/01/07 15:06:33;;;;;;;3.80;3.30;;;;;;;;;;14892562;29;20231;-78
2021/01/07 15:14:02;;;;;;;5.70;3.63;;;6.80;61.60;;;;;;14890864;29;20195;-79
2021/01/07 15:21:33;;;;;;;4.27;3.67;;;;;;;;;;14860973;29;20665;-78
2021/01/07 15:29:01;;;;;;;6.20;4.00;;;;;;;;;;14892128;29;20279;-79
2021/01/07 15:36:49;;;;;;;6.53;3.87;;;7.10;62.60;;;;;;14896553;29;20223;-80
2021/01/07 15:44:35;;;;;;;4.90;3.90;;;;;;;;;;14890807;29;20215;-78
2021/01/07 15:52:22;;;;;;;5.83;4.10;;;;;;;;;;14891828;29;20211;-78
2021/01/07 15:59:56;;;;;;;9.23;5.13;;;8.70;67.70;;;;;;14890487;29;20575;-71
2021/01/07 16:07:47;;;;;;;6.90;4.10;;;;;;;;;;14891172;29;20627;-71
2021/01/07 16:15:15;;;;;;;7.57;5.33;;;;;;;;;;14891174;29;20230;-73
2021/01/07 16:22:46;;;;;;;10.53;4.97;;;7.60;61.90;;;;;;14874704;29;20277;-72
2021/01/07 16:30:14;;;;;;;8.30;5.30;;;8.90;66.40;;;;;;14898880;29;20223;-72
2021/01/07 16:37:46;;;;;;;6.10;4.73;;;6.60;64.80;;;;;;14901643;29;20191;-71
2021/01/07 16:45:14;;;;;;;11.23;5.30;;;;;;;;;;14900895;29;20227;-72
2021/01/07 16:52:41;;;;;;;18.57;6.10;;;7.70;65.10;;;;;;14899859;29;20694;-72
2021/01/07 17:00:09;;;;;;;12.07;5.87;;;;;;;;;;14881392;29;20239;-77
2021/01/07 17:07:36;;;;;;;6.67;5.70;;;6.80;64.40;;;;;;14897710;29;20666;-75
2021/01/07 17:15:04;;;;;;;7.90;5.20;;;;;;;;;;14879533;29;20226;-77
2021/01/07 17:22:32;;;;;;;13.30;6.17;;;9.30;66.50;;;;;;14882456;29;20560;-77
2021/01/07 17:30:01;;;;;;;9.63;6.97;;;8.70;67.00;;;;;;14899368;29;20641;-77
2021/01/07 17:37:29;;;;;;;8.37;6.60;;;7.00;65.70;;;;;;14880890;29;20294;-77
2021/01/07 17:44:57;;;;;;;10.20;6.50;;;7.70;66.50;;;;;;14882880;29;20235;-75
2021/01/07 17:52:26;;;;;;;8.80;5.87;;;7.50;66.20;;;;;;14898974;29;20659;-75
2021/01/07 17:59:57;;;;;;;9.37;6.50;;;9.10;67.70;;;;;;14878650;29;20259;-76
2021/01/07 18:07:25;;;;;;;10.50;6.20;;;7.00;66.50;;;;;;14880447;29;20643;-75
2021/01/07 18:14:53;;;;;;;9.10;6.60;;;;;;;;;;14898267;29;20220;-75
2021/01/07 18:22:21;;;;;;;8.83;6.60;;;8.00;65.40;;;;;;14872974;29;20569;-76
2021/01/07 18:29:48;;;;;;;11.80;7.20;;;6.90;64.60;;;;;;14877589;29;20239;-77
2021/01/07 18:37:15;;;;;;;13.73;7.77;;;7.60;64.80;;;;;;14896719;29;20757;-75
2021/01/07 18:44:42;;;;;;;12.03;7.57;;;;;;;;;;14895544;29;20698;-76
2021/01/07 18:52:12;;;;;;;9.30;7.60;;;;;;;;;;14879873;29;20212;-75
2021/01/07 18:59:38;;;;;;;11.10;7.83;;;7.30;66.00;;;;;;14878229;29;20286;-75
2021/01/07 19:07:05;;;;;;;9.63;7.47;;;7.70;66.10;;;;;;14878121;29;20231;-75
2021/01/07 19:14:33;;;;;;;14.93;9.20;;;6.70;63.30;;;;;;14892421;29;20271;-76
2021/01/07 19:22:03;;;;;;;8.50;7.70;;;6.90;65.80;;;;;;14892790;29;20192;-77
2021/01/07 19:29:31;;;;;;;12.50;7.73;;;8.00;67.20;;;;;;14894161;29;20222;-78
2021/01/07 19:37:02;;;;;;;9.80;8.10;;;;;;;;;;14877799;29;20512;-77
2021/01/07 19:44:29;;;;;;;8.10;7.20;;;;;;;;;;14894194;29;20226;-77
2021/01/07 19:51:55;;;;;;;10.90;8.33;;;;;;;;;;14893038;29;20264;-77
2021/01/07 19:59:23;;;;;;;9.93;8.03;;;;;;;;;;14893652;29;20782;-78
2021/01/07 20:06:50;;;;;;;10.40;8.53;;;;;;;;;;14886719;29;20235;-80
2021/01/07 20:14:18;;;;;;;12.07;8.17;;;;;;;;;;14887586;29;20266;-78
2021/01/07 20:21:46;;;;;;;10.73;8.03;;;;;;;;;;14903222;29;20714;-77
2021/01/07 20:29:15;;;;;;;9.97;8.57;;;;;;;;;;14888089;29;20273;-78
2021/01/07 20:36:44;;;;;;;10.93;9.17;;;;;;;;;;14888052;29;20216;-76
2021/01/07 20:44:12;;;;;;;11.60;9.50;;;;;;;;;;14901249;29;20325;-77
2021/01/07 20:51:44;;;;;;;14.83;9.63;;;6.20;67.30;;;;;;14901830;29;20223;-77
2021/01/07 20:59:13;;;;;;;12.03;9.23;;;;;;;;;;14902047;29;20239;-77
2021/01/07 21:06:40;;;;;;;12.13;9.13;;;6.30;72.70;;;;;;14885288;29;20221;-77
2021/01/07 21:14:07;;;;;;;10.40;9.10;;;;;;;;;;14899626;29;20219;-76
2021/01/07 21:21:35;;;;;;;11.20;9.60;;;5.30;73.60;;;;;;14902353;29;20266;-78
2021/01/07 21:29:02;;;;;;;12.67;10.50;;;;;;;;;;14886045;29;20225;-77
2021/01/07 21:36:30;;;;;;;18.30;11.57;;;;;;;;;;14899254;29;20283;-77
2021/01/07 21:43:58;;;;;;;15.10;12.73;;;;;;;;;;14882913;29;20240;-77
2021/01/07 21:51:27;;;;;;;17.47;12.67;;;;;;;;;;14899389;29;20240;-78
2021/01/07 21:58:54;;;;;;;13.37;11.97;;;;;;;;;;14882290;29;20235;-77
2021/01/07 22:06:23;;;;;;;14.63;11.90;;;;;;;;;;14898248;29;20208;-77
2021/01/07 22:13:56;;;;;;;12.30;10.87;;;7.20;76.00;;;;;;14880472;29;20235;-77
2021/01/07 22:21:25;;;;;;;13.57;11.80;;;;;;;;;;14898011;29;20230;-77
2021/01/07 22:28:53;;;;;;;17.87;13.77;;;6.80;70.80;;;;;;14879932;29;20556;-78
2021/01/07 22:36:24;;;;;;;21.37;16.77;;;5.90;69.90;;;;;;14895873;29;20210;-77
2021/01/07 22:43:54;;;;;;;24.10;19.50;;;;;;;;;;14879959;29;20220;-77
2021/01/07 22:51:21;;;;;;;23.33;17.43;;;;;;;;;;14879498;29;20243;-77
2021/01/07 22:58:49;;;;;;;21.33;17.73;;;;;;;;;;14895371;29;20235;-76
2021/01/07 23:06:25;;;;;;;23.23;18.10;;;4.10;70.40;;;;;;14875323;29;20203;-78
2021/01/07 23:13:53;;;;;;;24.77;18.03;;;;;;;;;;14895704;29;20562;-78
2021/01/07 23:21:19;;;;;;;44.33;30.93;;;4.70;76.10;;;;;;14895445;29;20701;-74
2021/01/07 23:28:47;;;;;;;24.63;19.53;;;;;;;;;;14893094;29;20227;-73
2021/01/07 23:36:16;;;;;;;26.27;20.03;;;;;;;;;;14879202;29;20607;-74
2021/01/07 23:43:44;;;;;;;27.47;20.90;;;6.40;75.10;;;;;;14889920;29;20633;-77
2021/01/07 23:51:14;;;;;;;24.83;19.43;;;;;;;;;;14905834;29;20241;-76
2021/01/07 23:58:42;;;;;;;26.20;19.73;;;;;;;;;;14903186;29;20313;-79
